OITR Airport Information

Runway Information
Runway 03 Length 10658 ft width 148 ft
Elevation 4343 ft Threshold 0 ft Heading 33
Runway 21 Length 10658 ft Width 148 ft
Elevation 4274 ft Threshold 0 ft Heading 213
Airport Frequencies
Type ATIS Name ATIS Frequency 127.25 MHZ
Type TWR Name TWR Frequency 118.25 MHZ
Airport Navaids
Type VOR-DME Name Uromiyeh Frequency 113500 KHZ
Type NDB Name Uromiyeh Frequency 370 KHZ
Airport Weather Information & NOTAM
ADDS - METARS form results

(2303 UTC 18 June 2019)
Data provider http://aviationweather.gov/metar/data/
 
Forecast for: OITR (ORUMIEH , IR)
Text: TAF OITR 181730Z 1818/1924 21008KT 8000 FEW035
Forecast period: 1800 UTC 18 June 2019 to 0000 UTC 20 June 2019
Forecast type: FROM: standard forecast or significant change
Winds: from the SSW (210 degrees) at 9 MPH (8 knots; 4.1 m/s)
Visibility: 5 miles (8 km)
Ceiling: at least 12,000 feet AGL
Clouds: few clouds at 3500 feet AGL
Weather: no significant weather forecast for this period
Text: TEMPO 1909/1915 10016KT FEW035CB SCT040 SCT100
Forecast period: 0900 to 1500 UTC 19 June 2019
Forecast type: TEMPORARY: The following changes expected for less than half the time period
Winds: from the E (100 degrees) at 18 MPH (16 knots; 8.2 m/s)
Visibility: missing
Ceiling: at least 12,000 feet AGL
Clouds: few clouds at 3500 feet AGL
scattered clouds at 4000 feet AGL
scattered clouds at 10000 feet AGL
Weather: no significant weather forecast for this period